Time;durP1;ratioP1;P1;durP2;ratioP2;P2;SDS_P1;SDS_P2;PMS_P1;PMS_P2;Temp;Humidity;BMP_temperature;BMP_pressure;BME280_temperature;BME280_humidity;BME280_pressure;Samples;Min_cycle;Max_cycle;Signal;HPM_P1;HPM_P2
2022/05/31 00:00:21;;;;;;;47.05;26.92;;;;;;;;;;6292424;28;20078;-69
2022/05/31 00:03:23;;;;;;;41.40;26.73;;;;;;;;;;6291362;28;20394;-68
2022/05/31 00:06:26;;;;;;;15.43;10.30;;;;;;;;;;6298103;28;20272;-69
2022/05/31 00:09:28;;;;;;;9.18;6.53;;;;;;;;;;6302846;28;20060;-70
2022/05/31 00:12:29;;;;;;;7.10;5.13;;;;;;;;;;6295431;28;20150;-70
2022/05/31 00:15:32;;;;;;;7.85;5.80;;;;;;;;;;6289467;28;20209;-70
2022/05/31 00:18:33;;;;;;;6.97;5.20;;;;;;;;;;6297457;28;20090;-70
2022/05/31 00:21:43;;;;;;;8.13;5.20;;;;;;;;;;6292584;28;20304;-70
2022/05/31 00:24:45;;;;;;;7.40;5.38;;;;;;;;;;6290575;28;20053;-71
2022/05/31 00:27:46;;;;;;;7.18;5.25;;;;;;;;;;6299765;28;20279;-71
2022/05/31 00:30:48;;;;;;;8.43;4.70;;;;;;;;;;6297878;28;20044;-71
2022/05/31 00:33:50;;;;;;;7.45;4.70;;;;;;;;;;6293499;28;20047;-69
2022/05/31 00:36:53;;;;;;;13.68;6.03;;;;;;;;;;6299276;28;20065;-67
2022/05/31 00:39:55;;;;;;;8.77;6.20;;;;;;;;;;6292613;28;20044;-70
2022/05/31 00:42:58;;;;;;;9.77;5.63;;;;;;;;;;6293355;28;22183;-70
2022/05/31 00:46:02;;;;;;;9.20;5.88;;;;;;;;;;6290459;28;20049;-72
2022/05/31 00:49:05;;;;;;;9.63;5.20;;;;;;;;;;6292971;28;20048;-70
2022/05/31 00:52:17;;;;;;;8.05;6.38;;;;;;;;;;6297148;28;20052;-70
2022/05/31 00:55:21;;;;;;;12.07;7.07;;;;;;;;;;6286914;28;20056;-72
2022/05/31 00:58:30;;;;;;;10.60;7.15;;;;;;;;;;6293815;28;20052;-71
2022/05/31 01:01:34;;;;;;;10.93;6.78;;;;;;;;;;6294277;28;20041;-71
2022/05/31 01:04:39;;;;;;;9.35;6.15;;;;;;;;;;6295929;28;20126;-70
2022/05/31 01:07:43;;;;;;;10.60;6.97;;;;;;;;;;6294360;28;20393;-69
2022/05/31 01:10:44;;;;;;;10.10;6.80;;;;;;;;;;6291153;28;20374;-70
2022/05/31 01:13:46;;;;;;;12.43;7.50;;;;;;;;;;6290789;28;20055;-70
2022/05/31 01:16:56;;;;;;;12.20;7.60;;;;;;;;;;6291834;28;20067;-71
2022/05/31 01:19:59;;;;;;;11.30;7.38;;;;;;;;;;6293808;28;20217;-69
2022/05/31 01:23:06;;;;;;;11.77;7.53;;;;;;;;;;6290248;28;20141;-70
2022/05/31 01:26:13;;;;;;;11.30;7.38;;;;;;;;;;6291891;28;20052;-69
2022/05/31 01:29:19;;;;;;;14.07;6.75;;;;;;;;;;6295218;28;20108;-69
2022/05/31 01:32:21;;;;;;;10.40;7.88;;;;;;;;;;6296172;28;20059;-69
2022/05/31 01:35:25;;;;;;;9.55;7.10;;;;;;;;;;6288996;28;20102;-69
2022/05/31 01:38:34;;;;;;;12.57;7.68;;;;;;;;;;6290358;28;20371;-70
2022/05/31 01:41:40;;;;;;;11.13;8.18;;;;;;;;;;6295979;28;20051;-70
2022/05/31 01:44:44;;;;;;;12.80;7.97;;;;;;;;;;6290819;28;20061;-69
2022/05/31 01:47:46;;;;;;;14.20;9.23;;;;;;;;;;6291405;28;20044;-69
2022/05/31 01:50:48;;;;;;;12.70;8.27;;;;;;;;;;6290136;28;20052;-69
2022/05/31 01:53:51;;;;;;;15.05;10.93;;;;;;;;;;6292036;28;20062;-70
2022/05/31 01:56:57;;;;;;;16.95;10.30;;;;;;;;;;6288494;28;20351;-69
2022/05/31 02:00:04;;;;;;;13.18;9.90;;;;;;;;;;6291086;28;20105;-70
2022/05/31 02:03:06;;;;;;;16.52;10.20;;;;;;;;;;6289032;28;20072;-69
2022/05/31 02:06:24;;;;;;;18.88;10.85;;;;;;;;;;6287598;28;20041;-71
2022/05/31 02:09:27;;;;;;;15.55;11.10;;;;;;;;;;6294866;28;20085;-70
2022/05/31 02:12:31;;;;;;;17.77;10.95;;;;;;;;;;6295118;28;20040;-69
2022/05/31 02:15:34;;;;;;;18.85;11.77;;;;;;;;;;6299009;28;20060;-70
2022/05/31 02:21:53;;;;;;;16.00;11.00;;;;;;;;;;6293594;28;20335;-70
2022/05/31 02:24:56;;;;;;;14.95;10.57;;;;;;;;;;6295470;28;20076;-70
2022/05/31 02:27:58;;;;;;;17.50;11.53;;;;;;;;;;6299028;28;20074;-70
2022/05/31 02:30:59;;;;;;;16.50;11.30;;;;;;;;;;6297824;28;20471;-70
2022/05/31 02:34:02;;;;;;;16.85;11.18;;;;;;;;;;6302740;28;20052;-69
2022/05/31 02:37:04;;;;;;;14.10;10.23;;;;;;;;;;6303898;28;20090;-69
2022/05/31 02:40:09;;;;;;;13.00;9.70;;;;;;;;;;6300550;28;20049;-70
2022/05/31 02:43:11;;;;;;;14.98;10.70;;;;;;;;;;6299513;28;20057;-70
2022/05/31 02:46:13;;;;;;;15.48;10.32;;;;;;;;;;6295491;28;20048;-69
2022/05/31 02:49:15;;;;;;;19.33;11.55;;;;;;;;;;6290774;28;21659;-70
2022/05/31 02:52:17;;;;;;;23.08;16.27;;;;;;;;;;6292640;28;20057;-69
2022/05/31 02:55:20;;;;;;;16.52;11.07;;;;;;;;;;6294643;28;20079;-69
2022/05/31 02:58:22;;;;;;;17.02;10.65;;;;;;;;;;6296759;28;20087;-69
2022/05/31 03:01:25;;;;;;;16.65;10.13;;;;;;;;;;6294094;28;20335;-69
2022/05/31 03:04:27;;;;;;;14.18;9.65;;;;;;;;;;6296785;28;20056;-69
2022/05/31 03:07:29;;;;;;;14.02;9.95;;;;;;;;;;6292622;28;20336;-69
2022/05/31 03:10:35;;;;;;;15.05;10.35;;;;;;;;;;6296996;28;20052;-69
2022/05/31 03:13:36;;;;;;;14.45;10.52;;;;;;;;;;6293443;28;20328;-69
2022/05/31 03:16:40;;;;;;;15.20;10.18;;;;;;;;;;6293882;28;20304;-69
2022/05/31 03:19:44;;;;;;;16.05;10.32;;;;;;;;;;6290703;28;20048;-69
2022/05/31 03:22:49;;;;;;;13.50;9.25;;;;;;;;;;6292796;28;20072;-69
2022/05/31 03:25:53;;;;;;;15.73;9.60;;;;;;;;;;6294083;28;20149;-69
2022/05/31 03:28:54;;;;;;;;;;;;;;;;;;6293331;28;20098;-69
2022/05/31 03:31:56;;;;;;;13.57;9.93;;;;;;;;;;6290523;28;20111;-69
2022/05/31 03:34:58;;;;;;;15.75;9.73;;;;;;;;;;6294158;28;20052;-69
2022/05/31 03:37:59;;;;;;;13.75;9.05;;;;;;;;;;6290681;28;20036;-69
2022/05/31 03:41:03;;;;;;;14.15;9.75;;;;;;;;;;6293498;28;20326;-69
2022/05/31 03:44:05;;;;;;;12.75;9.60;;;;;;;;;;6293998;28;20267;-70
2022/05/31 03:47:07;;;;;;;14.07;9.73;;;;;;;;;;6291998;28;20844;-69
2022/05/31 03:50:09;;;;;;;13.60;9.82;;;;;;;;;;6290392;28;20045;-70
2022/05/31 03:53:12;;;;;;;13.70;10.02;;;;;;;;;;6296019;28;20057;-69
2022/05/31 03:56:15;;;;;;;15.25;10.10;;;;;;;;;;6289585;28;20051;-69
2022/05/31 03:59:17;;;;;;;15.32;10.07;;;;;;;;;;6291072;28;20048;-70
2022/05/31 04:02:18;;;;;;;13.13;9.88;;;;;;;;;;6292681;28;20275;-70
2022/05/31 04:05:20;;;;;;;13.20;9.25;;;;;;;;;;6289327;28;20068;-69
2022/05/31 04:08:22;;;;;;;16.88;10.30;;;;;;;;;;6293901;28;20111;-69
2022/05/31 04:11:25;;;;;;;17.13;9.85;;;;;;;;;;6291519;28;20055;-70
2022/05/31 04:14:27;;;;;;;15.15;10.32;;;;;;;;;;6293068;28;20055;-70
2022/05/31 04:17:29;;;;;;;15.55;10.77;;;;;;;;;;6291465;28;20063;-69
2022/05/31 04:20:30;;;;;;;15.27;10.88;;;;;;;;;;6294550;28;20051;-69
2022/05/31 04:26:53;;;;;;;15.30;11.20;;;;;;;;;;6290552;28;20049;-69
2022/05/31 04:29:55;;;;;;;15.82;10.88;;;;;;;;;;6287917;28;20064;-69
2022/05/31 04:32:57;;;;;;;14.80;10.25;;;;;;;;;;6294049;28;20086;-70
2022/05/31 04:36:00;;;;;;;16.52;10.25;;;;;;;;;;6291719;28;20235;-70
2022/05/31 04:39:02;;;;;;;16.85;11.13;;;;;;;;;;6291041;28;20060;-69
2022/05/31 04:42:05;;;;;;;13.73;9.45;;;;;;;;;;6289893;28;20279;-70
2022/05/31 04:45:08;;;;;;;15.38;11.55;;;;;;;;;;6289870;28;20052;-69
2022/05/31 04:48:10;;;;;;;15.02;10.10;;;;;;;;;;6292611;28;20071;-70
2022/05/31 04:51:12;;;;;;;14.50;10.48;;;;;;;;;;6307862;27;20060;-68
2022/05/31 04:54:16;;;;;;;15.60;11.07;;;;;;;;;;6314394;28;20120;-68
2022/05/31 04:57:19;;;;;;;16.85;11.07;;;;;;;;;;6310909;28;20056;-69
2022/05/31 05:00:22;;;;;;;16.77;12.63;;;;;;;;;;6314867;28;20361;-71
2022/05/31 05:03:23;;;;;;;15.52;11.88;;;;;;;;;;6317225;28;20059;-70
2022/05/31 05:06:25;;;;;;;17.88;12.32;;;;;;;;;;6316766;28;20050;-69
2022/05/31 05:09:26;;;;;;;16.30;11.95;;;;;;;;;;6312612;27;20105;-71
2022/05/31 05:12:30;;;;;;;18.90;12.98;;;;;;;;;;6314045;28;20044;-70
2022/05/31 05:15:32;;;;;;;15.80;12.73;;;;;;;;;;6316314;27;20137;-71
2022/05/31 05:18:34;;;;;;;22.40;12.68;;;;;;;;;;6317715;28;20109;-71
2022/05/31 05:21:36;;;;;;;18.10;13.35;;;;;;;;;;6313888;27;20327;-70
2022/05/31 05:24:38;;;;;;;21.80;14.00;;;;;;;;;;6312155;28;20243;-70
2022/05/31 05:27:41;;;;;;;16.00;12.80;;;;;;;;;;6312926;27;20067;-70
2022/05/31 05:30:41;;;;;;;17.15;13.73;;;;;;;;;;6314947;27;20105;-72
2022/05/31 05:33:43;;;;;;;18.42;14.45;;;;;;;;;;6315991;28;20047;-72
2022/05/31 05:36:45;;;;;;;17.85;14.45;;;;;;;;;;6314158;27;20074;-72
2022/05/31 05:39:47;;;;;;;18.42;14.50;;;;;;;;;;6316412;27;20391;-72
2022/05/31 05:42:50;;;;;;;18.92;14.45;;;;;;;;;;6312118;28;20048;-72
2022/05/31 05:45:52;;;;;;;18.75;14.48;;;;;;;;;;6317320;27;20343;-71
2022/05/31 05:48:54;;;;;;;17.58;13.63;;;;;;;;;;6309502;27;20067;-72
2022/05/31 05:51:57;;;;;;;18.00;14.75;;;;;;;;;;6314659;28;20060;-72
2022/05/31 05:54:59;;;;;;;18.77;15.05;;;;;;;;;;6315585;28;20048;-73
2022/05/31 05:58:03;;;;;;;17.55;14.70;;;;;;;;;;6318024;27;20267;-72
2022/05/31 06:01:05;;;;;;;21.48;15.32;;;;;;;;;;6313717;28;20051;-73
2022/05/31 06:04:10;;;;;;;21.40;14.88;;;;;;;;;;6312264;27;20056;-72
2022/05/31 06:07:14;;;;;;;20.00;14.60;;;;;;;;;;6317548;27;20070;-72
2022/05/31 06:10:19;;;;;;;19.48;15.32;;;;;;;;;;6313524;28;20053;-71
2022/05/31 06:13:25;;;;;;;22.50;16.05;;;;;;;;;;6314812;28;20113;-72
2022/05/31 06:16:29;;;;;;;18.75;15.20;;;;;;;;;;6315601;28;20052;-72
2022/05/31 06:19:35;;;;;;;20.17;14.88;;;;;;;;;;6310297;27;20048;-72
2022/05/31 06:22:38;;;;;;;22.08;14.90;;;;;;;;;;6309764;28;20299;-71
2022/05/31 06:25:39;;;;;;;20.30;15.15;;;;;;;;;;6308666;27;20092;-71
2022/05/31 06:28:42;;;;;;;19.98;13.98;;;;;;;;;;6313115;28;20350;-71
2022/05/31 06:31:44;;;;;;;16.70;13.30;;;;;;;;;;6313440;28;20044;-72
2022/05/31 06:34:46;;;;;;;19.58;12.95;;;;;;;;;;6317462;28;20104;-71
2022/05/31 06:37:48;;;;;;;16.92;12.45;;;;;;;;;;6321151;27;20040;-72
2022/05/31 06:40:52;;;;;;;17.90;12.15;;;;;;;;;;6324743;27;20052;-71
2022/05/31 06:43:57;;;;;;;14.32;11.88;;;;;;;;;;6314780;27;20044;-71
2022/05/31 06:46:59;;;;;;;18.13;12.73;;;;;;;;;;6311573;28;20276;-71
2022/05/31 06:50:01;;;;;;;17.67;12.60;;;;;;;;;;6313527;27;20045;-72
2022/05/31 06:59:42;;;;;;;14.68;12.45;;;;;;;;;;6318797;27;20068;-72
2022/05/31 07:02:44;;;;;;;15.27;10.82;;;;;;;;;;6320783;28;20060;-72
2022/05/31 07:05:46;;;;;;;14.48;11.23;;;;;;;;;;6314120;28;20216;-72
2022/05/31 07:08:47;;;;;;;15.80;11.48;;;;;;;;;;6321088;27;20075;-72
2022/05/31 07:11:49;;;;;;;13.05;10.13;;;;;;;;;;6319707;27;20048;-72
2022/05/31 07:14:52;;;;;;;13.43;10.93;;;;;;;;;;6315216;28;20048;-72
2022/05/31 07:17:54;;;;;;;13.10;11.23;;;;;;;;;;6311567;28;20382;-72
2022/05/31 07:20:56;;;;;;;25.45;11.85;;;;;;;;;;6318462;28;20347;-72
2022/05/31 07:23:58;;;;;;;13.25;10.90;;;;;;;;;;6319981;27;20048;-72
2022/05/31 07:26:59;;;;;;;17.52;10.13;;;;;;;;;;6318221;28;20056;-72
2022/05/31 07:30:03;;;;;;;13.02;10.63;;;;;;;;;;6318128;27;20385;-72
2022/05/31 07:33:05;;;;;;;13.40;11.35;;;;;;;;;;6319500;28;20208;-72
2022/05/31 07:36:07;;;;;;;14.98;11.63;;;;;;;;;;6315750;28;20048;-72
2022/05/31 07:39:11;;;;;;;17.38;11.85;;;;;;;;;;6317401;28;20050;-72
2022/05/31 07:42:13;;;;;;;22.00;11.93;;;;;;;;;;6316768;28;20044;-72
2022/05/31 07:45:16;;;;;;;15.32;12.20;;;;;;;;;;6317699;28;20327;-72
2022/05/31 07:48:19;;;;;;;18.73;11.60;;;;;;;;;;6314819;28;20220;-72
2022/05/31 07:51:20;;;;;;;16.03;11.93;;;;;;;;;;6318427;28;20063;-72
2022/05/31 07:54:22;;;;;;;14.07;10.82;;;;;;;;;;6316149;27;20219;-72
2022/05/31 08:00:44;;;;;;;16.42;12.95;;;;;;;;;;6314684;28;20250;-72
2022/05/31 08:03:46;;;;;;;14.82;12.63;;;;;;;;;;6315800;27;20052;-72
2022/05/31 08:06:48;;;;;;;15.75;12.90;;;;;;;;;;6320754;28;20063;-71
2022/05/31 08:09:50;;;;;;;16.60;13.15;;;;;;;;;;6313914;28;20044;-72
2022/05/31 08:12:51;;;;;;;16.90;13.95;;;;;;;;;;6314773;28;20047;-72
2022/05/31 08:15:57;;;;;;;17.58;12.90;;;;;;;;;;6316809;27;20052;-71
2022/05/31 08:18:59;;;;;;;16.13;12.38;;;;;;;;;;6319126;27;20044;-72
2022/05/31 08:22:01;;;;;;;15.40;12.07;;;;;;;;;;6316246;27;20048;-72
2022/05/31 08:25:03;;;;;;;15.13;11.55;;;;;;;;;;6317868;27;20220;-72
2022/05/31 08:28:05;;;;;;;13.70;10.73;;;;;;;;;;6315263;28;20047;-72
2022/05/31 08:31:12;;;;;;;14.38;11.18;;;;;;;;;;6316923;28;20064;-72
2022/05/31 08:34:14;;;;;;;14.70;11.20;;;;;;;;;;6321818;27;20052;-72
2022/05/31 08:37:16;;;;;;;14.85;10.85;;;;;;;;;;6313908;27;20088;-72
2022/05/31 08:40:18;;;;;;;12.98;10.27;;;;;;;;;;6316679;28;20040;-72
2022/05/31 08:43:24;;;;;;;14.55;11.43;;;;;;;;;;6319515;27;20459;-73
2022/05/31 08:46:32;;;;;;;17.85;11.98;;;;;;;;;;6313141;27;20068;-72
2022/05/31 08:53:18;;;;;;;15.07;10.73;;;;;;;;;;6315699;27;20036;-72
2022/05/31 08:59:43;;;;;;;14.70;11.75;;;;;;;;;;6312598;28;20044;-71
2022/05/31 09:02:50;;;;;;;13.57;11.10;;;;;;;;;;6317206;28;20350;-72
2022/05/31 09:05:57;;;;;;;15.13;10.93;;;;;;;;;;6314560;28;20046;-71
2022/05/31 09:09:03;;;;;;;13.38;11.95;;;;;;;;;;6316292;28;20118;-71
2022/05/31 09:12:14;;;;;;;14.32;11.57;;;;;;;;;;6313860;28;20044;-71
2022/05/31 09:15:18;;;;;;;16.63;11.18;;;;;;;;;;6309685;28;20359;-71
2022/05/31 09:18:24;;;;;;;18.00;11.35;;;;;;;;;;6316729;28;20271;-71
2022/05/31 09:21:28;;;;;;;15.25;11.50;;;;;;;;;;6312230;28;20051;-71
2022/05/31 09:24:30;;;;;;;17.95;11.13;;;;;;;;;;6311566;27;20044;-71
2022/05/31 09:27:38;;;;;;;15.85;11.70;;;;;;;;;;6315859;28;20059;-72
2022/05/31 09:30:42;;;;;;;16.15;11.23;;;;;;;;;;6316000;28;20036;-71
2022/05/31 09:33:50;;;;;;;14.05;11.30;;;;;;;;;;6318966;27;20130;-71
2022/05/31 09:37:04;;;;;;;19.35;12.38;;;;;;;;;;6312645;28;20052;-71
2022/05/31 09:40:22;;;;;;;17.15;11.88;;;;;;;;;;6312498;28;20327;-71
2022/05/31 09:43:27;;;;;;;17.30;12.45;;;;;;;;;;6313604;28;20056;-71
2022/05/31 09:46:34;;;;;;;14.40;11.52;;;;;;;;;;6312464;28;20040;-71
2022/05/31 09:49:41;;;;;;;13.80;11.15;;;;;;;;;;6310399;28;20259;-71
2022/05/31 09:52:47;;;;;;;13.95;12.48;;;;;;;;;;6312692;28;20074;-71
2022/05/31 09:59:10;;;;;;;13.93;11.07;;;;;;;;;;6314920;28;20048;-71
2022/05/31 10:02:29;;;;;;;17.65;11.20;;;;;;;;;;6312828;28;20237;-71
2022/05/31 10:05:33;;;;;;;13.88;11.50;;;;;;;;;;6314080;28;20105;-71
2022/05/31 10:08:35;;;;;;;;;;;;;;;;;;6313018;28;20297;-71
2022/05/31 10:11:44;;;;;;;14.65;11.13;;;;;;;;;;6312919;28;19916;-71
2022/05/31 10:14:47;;;;;;;13.13;11.05;;;;;;;;;;6318199;28;20048;-72
2022/05/31 10:18:01;;;;;;;15.20;11.30;;;;;;;;;;6313430;28;20041;-72
2022/05/31 10:21:07;;;;;;;14.43;11.75;;;;;;;;;;6313268;28;20138;-72
2022/05/31 10:24:16;;;;;;;13.73;10.68;;;;;;;;;;6316098;27;20274;-73
2022/05/31 10:27:21;;;;;;;14.25;10.95;;;;;;;;;;6318383;28;20044;-72
2022/05/31 10:30:23;;;;;;;16.20;11.20;;;;;;;;;;6318168;28;20266;-72
2022/05/31 10:33:25;;;;;;;13.83;11.97;;;;;;;;;;6323282;27;20048;-71
2022/05/31 10:36:30;;;;;;;13.50;9.87;;;;;;;;;;6324827;28;20546;-72
2022/05/31 10:39:36;;;;;;;13.80;11.00;;;;;;;;;;6324141;28;20052;-71
2022/05/31 10:42:43;;;;;;;14.80;10.70;;;;;;;;;;6319238;28;20054;-72
2022/05/31 10:45:45;;;;;;;12.52;10.88;;;;;;;;;;6316580;28;20044;-72
2022/05/31 10:48:49;;;;;;;13.27;11.68;;;;;;;;;;6316521;28;20056;-71
2022/05/31 10:52:03;;;;;;;16.73;10.88;;;;;;;;;;6317957;28;20041;-72
2022/05/31 10:55:20;;;;;;;13.77;10.95;;;;;;;;;;6318422;28;20052;-75
2022/05/31 10:58:54;;;;;;;24.20;15.55;;;;;;;;;;6316444;28;20300;-76
2022/05/31 11:02:30;;;;;;;35.63;30.75;;;;;;;;;;6311877;28;20051;-75
2022/05/31 11:05:43;;;;;;;17.35;12.65;;;;;;;;;;6317482;28;20115;-74
2022/05/31 11:12:32;;;;;;;14.88;11.90;;;;;;;;;;6315957;28;20071;-74
2022/05/31 11:15:41;;;;;;;16.83;12.25;;;;;;;;;;6317548;28;20047;-75
2022/05/31 11:19:04;;;;;;;15.60;11.77;;;;;;;;;;6318298;28;20337;-74
2022/05/31 11:22:23;;;;;;;17.52;12.65;;;;;;;;;;6316153;28;20319;-74
2022/05/31 11:25:39;;;;;;;16.50;11.93;;;;;;;;;;6317841;27;20102;-75
2022/05/31 11:28:54;;;;;;;16.30;11.88;;;;;;;;;;6315385;27;20308;-74
2022/05/31 11:32:01;;;;;;;15.48;11.40;;;;;;;;;;6313280;27;20048;-74
2022/05/31 11:35:10;;;;;;;15.95;10.68;;;;;;;;;;6319561;28;20116;-75
2022/05/31 11:38:15;;;;;;;16.05;11.13;;;;;;;;;;6314693;28;20348;-75
2022/05/31 11:41:27;;;;;;;15.50;11.65;;;;;;;;;;6315966;28;20052;-75
2022/05/31 11:45:05;;;;;;;13.60;11.02;;;;;;;;;;6315885;28;20097;-74
2022/05/31 11:48:42;;;;;;;16.35;11.70;;;;;;;;;;6314778;28;20045;-75
2022/05/31 11:51:57;;;;;;;12.73;10.75;;;;;;;;;;6314655;28;20070;-74
2022/05/31 11:55:28;;;;;;;13.15;10.82;;;;;;;;;;6316296;28;20053;-75
2022/05/31 11:58:37;;;;;;;14.27;10.45;;;;;;;;;;6314626;28;20051;-75
2022/05/31 12:01:44;;;;;;;15.25;12.23;;;;;;;;;;6312874;28;20044;-75
2022/05/31 12:04:49;;;;;;;20.08;12.30;;;;;;;;;;6319562;28;20056;-75
2022/05/31 12:07:56;;;;;;;13.63;11.90;;;;;;;;;;6310906;27;20288;-75
2022/05/31 12:11:01;;;;;;;24.92;19.08;;;;;;;;;;6314286;28;20071;-75
2022/05/31 12:14:05;;;;;;;43.10;30.60;;;;;;;;;;6315054;28;20097;-75
2022/05/31 12:17:08;;;;;;;14.40;12.38;;;;;;;;;;6315550;28;20052;-74
2022/05/31 12:20:17;;;;;;;13.20;10.75;;;;;;;;;;6315147;27;20056;-74
2022/05/31 12:23:24;;;;;;;20.92;11.60;;;;;;;;;;6321055;27;20379;-74
2022/05/31 12:26:29;;;;;;;13.20;10.65;;;;;;;;;;6328871;28;20247;-74
2022/05/31 12:29:34;;;;;;;14.15;10.70;;;;;;;;;;6324039;28;20063;-74
2022/05/31 12:32:44;;;;;;;13.48;9.35;;;;;;;;;;6320029;28;20060;-74
2022/05/31 12:35:55;;;;;;;12.35;9.95;;;;;;;;;;6321742;28;20056;-75
2022/05/31 12:39:06;;;;;;;16.45;11.15;;;;;;;;;;6318701;28;20060;-74
2022/05/31 12:42:34;;;;;;;15.30;11.77;;;;;;;;;;6316684;28;20043;-73
2022/05/31 12:45:42;;;;;;;14.65;10.27;;;;;;;;;;6318455;28;20051;-74
2022/05/31 12:48:49;;;;;;;10.48;8.73;;;;;;;;;;6320198;28;20120;-74
2022/05/31 12:55:58;;;;;;;12.95;10.50;;;;;;;;;;6309739;28;20423;-73
2022/05/31 12:59:00;;;;;;;13.32;10.05;;;;;;;;;;6319212;28;20064;-74
2022/05/31 13:02:03;;;;;;;13.57;9.73;;;;;;;;;;6322660;28;20097;-73
2022/05/31 13:05:32;;;;;;;10.68;9.25;;;;;;;;;;6323307;28;20055;-75
2022/05/31 13:08:52;;;;;;;14.63;10.68;;;;;;;;;;6293214;28;20037;-75
2022/05/31 13:22:03;;;;;;;9.10;8.18;;;;;;;;;;6291487;28;20073;-73
2022/05/31 13:25:08;;;;;;;11.60;9.48;;;;;;;;;;6287151;27;20111;-73
2022/05/31 13:28:22;;;;;;;12.98;9.98;;;;;;;;;;6278070;28;20049;-74
2022/05/31 13:31:26;;;;;;;11.63;10.27;;;;;;;;;;6289899;27;20056;-73
2022/05/31 13:34:32;;;;;;;14.45;10.13;;;;;;;;;;6293000;27;20098;-73
2022/05/31 13:37:47;;;;;;;15.48;10.05;;;;;;;;;;6284120;28;20068;-72
2022/05/31 13:40:51;;;;;;;12.90;9.43;;;;;;;;;;6284130;28;20052;-72
2022/05/31 13:43:55;;;;;;;10.68;9.27;;;;;;;;;;6288122;28;20111;-72
2022/05/31 13:46:59;;;;;;;13.63;9.52;;;;;;;;;;6286762;27;20064;-73
2022/05/31 13:50:07;;;;;;;13.75;9.80;;;;;;;;;;6292382;27;20090;-73
2022/05/31 13:53:12;;;;;;;13.55;10.00;;;;;;;;;;6291215;27;20044;-73
2022/05/31 13:56:15;;;;;;;15.38;11.82;;;;;;;;;;6294771;28;20054;-72
2022/05/31 13:59:31;;;;;;;12.30;10.60;;;;;;;;;;6294177;27;20093;-73
2022/05/31 14:05:58;;;;;;;14.07;10.68;;;;;;;;;;6293530;28;20067;-73
2022/05/31 14:08:59;;;;;;;10.93;8.88;;;;;;;;;;6298580;28;20079;-72
2022/05/31 14:12:03;;;;;;;11.85;9.65;;;;;;;;;;6299947;27;20102;-72
2022/05/31 14:15:07;;;;;;;17.92;10.35;;;;;;;;;;6294545;28;20049;-73
2022/05/31 14:18:10;;;;;;;14.27;10.30;;;;;;;;;;6300383;27;20048;-72
2022/05/31 14:21:14;;;;;;;11.38;9.13;;;;;;;;;;6297932;27;20074;-73
2022/05/31 14:24:17;;;;;;;13.40;11.05;;;;;;;;;;6296368;28;20553;-72
2022/05/31 14:27:20;;;;;;;12.60;11.23;;;;;;;;;;6296531;28;20067;-73
2022/05/31 14:30:31;;;;;;;14.15;11.20;;;;;;;;;;6294219;28;20048;-73
2022/05/31 14:33:35;;;;;;;26.95;20.25;;;;;;;;;;6293739;27;20103;-73
2022/05/31 14:36:39;;;;;;;19.92;14.43;;;;;;;;;;6294001;28;20099;-73
2022/05/31 14:39:47;;;;;;;18.05;13.75;;;;;;;;;;6296642;27;20041;-73
2022/05/31 14:42:56;;;;;;;17.38;12.93;;;;;;;;;;6296248;27;20056;-73
2022/05/31 14:45:58;;;;;;;17.73;13.48;;;;;;;;;;6296211;27;20170;-72
2022/05/31 14:49:05;;;;;;;18.40;13.73;;;;;;;;;;6294072;28;20056;-73
2022/05/31 14:52:26;;;;;;;21.08;13.25;;;;;;;;;;6291655;28;20481;-73
2022/05/31 14:55:31;;;;;;;18.63;14.43;;;;;;;;;;6296810;27;20305;-73
2022/05/31 14:58:40;;;;;;;20.95;16.15;;;;;;;;;;6294670;27;20053;-72
2022/05/31 15:01:45;;;;;;;18.38;14.27;;;;;;;;;;6293719;27;20122;-72
2022/05/31 15:04:48;;;;;;;19.30;13.68;;;;;;;;;;6301215;27;20076;-73
2022/05/31 15:07:53;;;;;;;20.10;15.90;;;;;;;;;;6294300;27;20067;-73
2022/05/31 15:18:56;;;;;;;20.20;14.80;;;;;;;;;;6291999;28;20049;-72
2022/05/31 15:20:56;;;;;;;21.20;14.23;;;;;;;;;;6297781;28;20056;-73
2022/05/31 15:23:59;;;;;;;24.55;15.43;;;;;;;;;;6295649;27;20059;-73
2022/05/31 15:27:03;;;;;;;18.30;15.75;;;;;;;;;;6291954;27;20332;-73
2022/05/31 15:30:06;;;;;;;19.80;15.40;;;;;;;;;;6289440;28;20059;-74
2022/05/31 15:33:08;;;;;;;22.20;16.90;;;;;;;;;;6298695;28;20052;-74
2022/05/31 15:36:09;;;;;;;23.20;14.98;;;;;;;;;;6301204;27;20223;-73
2022/05/31 15:39:15;;;;;;;16.48;13.38;;;;;;;;;;6294999;27;20048;-74
2022/05/31 15:42:18;;;;;;;15.98;13.60;;;;;;;;;;6294686;28;20041;-72
2022/05/31 15:45:20;;;;;;;;;;;;;;;;;;6294446;27;20224;-71
2022/05/31 15:48:27;;;;;;;25.20;20.63;;;;;;;;;;6290692;28;20056;-74
2022/05/31 15:51:31;;;;;;;39.40;29.88;;;;;;;;;;6297213;27;20126;-74
2022/05/31 15:54:39;;;;;;;40.20;33.15;;;;;;;;;;6300119;27;20051;-73
2022/05/31 15:57:43;;;;;;;17.65;14.75;;;;;;;;;;6302767;28;20094;-73
2022/05/31 16:00:44;;;;;;;20.60;14.43;;;;;;;;;;6323138;28;20286;-73
2022/05/31 16:03:46;;;;;;;18.23;14.02;;;;;;;;;;6324404;28;20051;-73
2022/05/31 16:06:49;;;;;;;17.38;13.57;;;;;;;;;;6323648;28;20257;-73
2022/05/31 16:09:54;;;;;;;17.52;14.48;;;;;;;;;;6321568;28;20052;-73
2022/05/31 16:12:55;;;;;;;22.73;16.38;;;;;;;;;;6326288;28;20052;-71
2022/05/31 16:15:58;;;;;;;20.90;16.08;;;;;;;;;;6326952;28;20104;-72
2022/05/31 16:18:59;;;;;;;20.92;14.27;;;;;;;;;;6324679;28;20055;-70
2022/05/31 16:22:01;;;;;;;19.55;14.05;;;;;;;;;;6320287;28;20059;-70
2022/05/31 16:25:05;;;;;;;20.55;14.15;;;;;;;;;;6321873;28;20053;-69
2022/05/31 16:28:07;;;;;;;14.95;11.85;;;;;;;;;;6324903;28;20311;-70
2022/05/31 16:31:09;;;;;;;19.73;13.55;;;;;;;;;;6319778;28;20048;-70
2022/05/31 16:34:11;;;;;;;18.08;12.13;;;;;;;;;;6321964;27;20060;-71
2022/05/31 16:43:56;;;;;;;14.65;12.23;;;;;;;;;;6319748;28;20332;-70
2022/05/31 16:46:58;;;;;;;18.17;11.43;;;;;;;;;;6322797;28;20232;-67
2022/05/31 16:50:01;;;;;;;15.32;11.30;;;;;;;;;;6325859;28;20056;-67
2022/05/31 16:53:02;;;;;;;17.33;13.85;;;;;;;;;;6321165;28;20055;-68
2022/05/31 16:56:06;;;;;;;17.63;14.30;;;;;;;;;;6325320;28;20054;-67
2022/05/31 16:59:07;;;;;;;;;;;;;;;;;;6322137;28;20128;-68
2022/05/31 17:02:09;;;;;;;19.42;13.50;;;;;;;;;;6316028;27;19932;-68
2022/05/31 17:05:11;;;;;;;18.42;13.57;;;;;;;;;;6312267;28;20044;-68
2022/05/31 17:14:52;;;;;;;19.00;12.77;;;;;;;;;;6316302;28;20135;-66
2022/05/31 17:17:54;;;;;;;22.50;13.35;;;;;;;;;;6315438;28;20052;-68
2022/05/31 17:20:56;;;;;;;17.63;13.00;;;;;;;;;;6313529;28;20052;-69
2022/05/31 17:23:58;;;;;;;16.30;12.65;;;;;;;;;;6316115;28;20048;-68
2022/05/31 17:27:01;;;;;;;14.77;11.75;;;;;;;;;;6316834;28;20054;-69
2022/05/31 17:30:04;;;;;;;25.63;13.55;;;;;;;;;;6318882;28;20048;-70
2022/05/31 17:33:11;;;;;;;17.17;12.77;;;;;;;;;;6319018;28;20069;-68
2022/05/31 17:36:15;;;;;;;17.67;13.68;;;;;;;;;;6294242;28;20061;-68
2022/05/31 17:39:17;;;;;;;16.58;12.75;;;;;;;;;;6288726;28;20056;-68
2022/05/31 17:42:20;;;;;;;18.08;13.73;;;;;;;;;;6296406;27;20045;-70
2022/05/31 17:45:22;;;;;;;16.48;13.27;;;;;;;;;;6290508;27;20063;-70
2022/05/31 17:48:23;;;;;;;18.00;14.20;;;;;;;;;;6294576;28;20086;-68
2022/05/31 17:51:29;;;;;;;15.52;12.40;;;;;;;;;;6295087;27;20184;-68
2022/05/31 17:54:32;;;;;;;17.77;12.70;;;;;;;;;;6288057;28;20067;-68
2022/05/31 17:57:35;;;;;;;16.70;13.63;;;;;;;;;;6295302;28;20088;-69
2022/05/31 18:00:37;;;;;;;17.35;13.48;;;;;;;;;;6317452;27;20048;-69
2022/05/31 18:03:40;;;;;;;16.38;12.30;;;;;;;;;;6291280;27;20098;-70
2022/05/31 18:06:42;;;;;;;16.75;13.20;;;;;;;;;;6290174;28;20067;-72
2022/05/31 18:09:45;;;;;;;17.05;13.23;;;;;;;;;;6307931;28;20052;-68
2022/05/31 18:12:49;;;;;;;17.95;13.10;;;;;;;;;;6317990;28;20078;-71
2022/05/31 18:15:51;;;;;;;16.42;12.70;;;;;;;;;;6313449;27;20099;-71
2022/05/31 18:18:55;;;;;;;15.98;12.85;;;;;;;;;;6313798;28;20056;-71
2022/05/31 18:21:56;;;;;;;16.30;12.70;;;;;;;;;;6315078;28;20048;-71
2022/05/31 18:25:00;;;;;;;19.33;14.43;;;;;;;;;;6317453;28;20051;-70
2022/05/31 18:31:31;;;;;;;13.77;11.20;;;;;;;;;;6241429;28;20080;-72
2022/05/31 18:34:34;;;;;;;17.15;13.30;;;;;;;;;;6238508;28;20098;-70
2022/05/31 18:40:55;;;;;;;17.27;12.65;;;;;;;;;;6246255;28;20332;-71
2022/05/31 18:43:59;;;;;;;15.95;11.95;;;;;;;;;;6244170;28;20060;-71
2022/05/31 18:47:00;;;;;;;16.05;11.60;;;;;;;;;;6237211;28;20256;-73
2022/05/31 18:50:04;;;;;;;15.30;11.35;;;;;;;;;;6241181;28;20049;-71
2022/05/31 18:53:07;;;;;;;15.07;11.20;;;;;;;;;;6242937;28;20156;-71
2022/05/31 18:56:12;;;;;;;14.13;10.27;;;;;;;;;;6243037;28;20041;-72
2022/05/31 18:59:17;;;;;;;16.30;11.15;;;;;;;;;;6241849;28;20054;-72
2022/05/31 19:02:22;;;;;;;17.08;11.20;;;;;;;;;;6245376;28;20061;-69
2022/05/31 19:05:25;;;;;;;19.05;10.73;;;;;;;;;;6240351;28;20061;-69
2022/05/31 19:08:29;;;;;;;15.55;11.30;;;;;;;;;;6317663;28;20047;-69
2022/05/31 19:11:30;;;;;;;;;;;;;;;;;;6320424;28;20048;-69
2022/05/31 19:14:35;;;;;;;16.13;10.73;;;;;;;;;;6319669;28;19928;-71